Time;durP1;ratioP1;P1;durP2;ratioP2;P2;SDS_P1;SDS_P2;PMS_P1;PMS_P2;Temp;Humidity;BMP_temperature;BMP_pressure;BME280_temperature;BME280_humidity;BME280_pressure;Samples;Min_cycle;Max_cycle;Signal;HPM_P1;HPM_P2
2022/09/23 00:01:27;;;;;;;3.53;3.22;;;;;;;15.20;48.46;99818.19;5111073;28;20023;-43
2022/09/23 00:03:53;;;;;;;4.55;3.30;;;;;;;14.92;49.02;99816.16;5111481;28;20070;-43
2022/09/23 00:06:23;;;;;;;5.70;3.25;;;;;;;15.09;49.06;99824.34;5111653;28;20058;-43
2022/09/23 00:08:49;;;;;;;3.85;3.30;;;;;;;14.88;49.32;99815.00;5111368;28;20447;-43
2022/09/23 00:11:20;;;;;;;3.60;3.25;;;;;;;14.65;49.65;99817.38;5111234;28;20428;-42
2022/09/23 00:13:48;;;;;;;5.45;3.30;;;;;;;14.59;50.09;99812.13;5111361;28;20402;-43
2022/09/23 00:16:16;;;;;;;3.75;3.17;;;;;;;14.73;50.31;99810.88;5111031;28;20027;-43
2022/09/23 00:18:42;;;;;;;4.25;3.10;;;;;;;14.71;49.36;99804.91;5111158;28;20048;-43
2022/09/23 00:21:12;;;;;;;4.07;3.22;;;;;;;14.42;50.42;99802.00;5111510;28;20493;-43
2022/09/23 00:23:39;;;;;;;4.75;3.28;;;;;;;14.78;49.81;99815.56;5111659;28;20043;-43
2022/09/23 00:26:06;;;;;;;5.18;3.47;;;;;;;14.63;49.98;99800.72;5111129;28;20128;-41
2022/09/23 00:28:32;;;;;;;3.80;3.30;;;;;;;14.77;49.34;99809.34;5110998;28;20031;-41
2022/09/23 00:31:19;;;;;;;4.18;3.50;;;;;;;14.77;49.55;99811.22;5113729;28;20488;-41
2022/09/23 00:33:44;;;;;;;5.53;3.40;;;;;;;14.72;49.38;99806.56;5115435;28;20446;-42
2022/09/23 00:36:15;;;;;;;4.15;3.75;;;;;;;14.52;50.29;99804.13;5115337;28;20088;-41
2022/09/23 00:38:42;;;;;;;5.95;3.78;;;;;;;14.83;49.16;99808.47;5115497;28;20027;-42
2022/09/23 00:41:08;;;;;;;4.07;3.40;;;;;;;14.71;49.73;99799.56;5115071;28;20055;-41
2022/09/23 00:43:46;;;;;;;6.78;3.70;;;;;;;14.66;49.82;99805.63;5115149;28;20062;-42
2022/09/23 00:46:22;;;;;;;4.03;3.50;;;;;;;14.52;49.72;99795.28;5115094;28;20502;-41
2022/09/23 00:48:54;;;;;;;4.43;3.42;;;;;;;14.19;50.06;99804.59;5115042;28;20436;-41
2022/09/23 00:51:23;;;;;;;4.10;3.50;;;;;;;14.14;50.42;99805.25;5115050;27;20066;-41
2022/09/23 00:53:51;;;;;;;3.92;3.33;;;;;;;14.56;49.03;99807.97;5115088;27;20023;-41
2022/09/23 00:56:20;;;;;;;4.10;3.15;;;;;;;14.59;49.54;99809.44;5114418;28;20042;-41
2022/09/23 00:58:48;;;;;;;4.60;3.70;;;;;;;14.72;48.84;99808.44;5114847;28;20055;-42
2022/09/23 01:01:13;;;;;;;3.92;3.40;;;;;;;14.82;48.17;99806.81;5114817;28;20398;-41
2022/09/23 01:03:42;;;;;;;3.50;3.20;;;;;;;14.51;49.27;99812.38;5114957;28;20146;-41
2022/09/23 01:06:08;;;;;;;5.70;3.50;;;;;;;14.36;50.35;99816.31;5115232;28;20019;-41
2022/09/23 01:08:33;;;;;;;6.70;3.22;;;;;;;14.31;49.92;99807.31;5114310;27;20501;-41
2022/09/23 01:11:17;;;;;;;4.95;3.50;;;;;;;14.13;50.04;99805.50;5114727;28;20020;-41
2022/09/23 01:13:52;;;;;;;3.97;3.08;;;;;;;14.25;50.06;99812.53;5114714;28;20024;-42
2022/09/23 01:16:47;;;;;;;3.80;3.10;;;;;;;14.58;49.00;99807.78;5114188;28;20031;-42
2022/09/23 01:19:25;;;;;;;4.07;3.10;;;;;;;14.17;50.04;99807.50;5100625;28;20507;-42
2022/09/23 01:22:03;;;;;;;3.58;3.17;;;;;;;14.39;49.75;99810.50;5114450;28;20028;-42
2022/09/23 01:24:56;;;;;;;4.47;3.40;;;;;;;14.02;50.08;99802.53;5114400;28;20024;-41
2022/09/23 01:27:59;;;;;;;3.97;3.30;;;;;;;14.32;49.74;99803.59;5114244;28;20027;-42
2022/09/23 01:31:03;;;;;;;3.90;3.20;;;;;;;13.96;50.22;99784.69;5114379;28;20092;-42
2022/09/23 01:33:47;;;;;;;3.75;3.30;;;;;;;14.23;50.07;99800.41;5114513;28;20447;-42
2022/09/23 01:36:20;;;;;;;5.13;3.15;;;;;;;14.33;50.12;99800.69;5114308;28;20028;-41
2022/09/23 01:38:52;;;;;;;3.80;3.40;;;;;;;14.37;49.48;99799.19;5114426;28;20046;-42
2022/09/23 01:41:26;;;;;;;4.47;3.25;;;;;;;14.22;49.81;99812.16;5113560;27;20101;-42
2022/09/23 01:44:21;;;;;;;4.63;3.20;;;;;;;14.57;49.12;99809.66;5113892;28;20501;-42
2022/09/23 01:46:52;;;;;;;4.82;3.50;;;;;;;14.51;49.48;99815.91;5105500;28;20051;-42
2022/09/23 01:49:49;;;;;;;4.45;3.50;;;;;;;14.47;50.07;99807.50;5114225;28;20066;-42
2022/09/23 01:52:25;;;;;;;4.07;3.67;;;;;;;14.24;50.36;99800.19;5113831;28;20042;-42
2022/09/23 01:55:24;;;;;;;4.18;3.50;;;;;;;14.38;49.93;99800.03;5113681;28;20024;-42
2022/09/23 01:58:12;;;;;;;5.15;3.75;;;;;;;14.24;50.37;99796.69;5113251;28;20039;-42
2022/09/23 02:00:44;;;;;;;5.03;3.55;;;;;;;13.86;51.01;99793.25;5113101;28;20467;-41
2022/09/23 02:03:18;;;;;;;4.28;3.22;;;;;;;13.74;51.22;99792.34;5113382;28;20023;-42
2022/09/23 02:05:49;;;;;;;3.50;3.20;;;;;;;13.74;51.34;99799.56;5113128;28;20220;-42
2022/09/23 02:08:31;;;;;;;4.32;3.28;;;;;;;13.38;52.27;99790.47;5113357;28;20115;-41
2022/09/23 02:11:03;;;;;;;5.38;3.28;;;;;;;13.57;51.54;99800.13;5113662;27;20498;-41
2022/09/23 02:13:49;;;;;;;6.43;3.53;;;;;;;13.62;51.82;99807.50;5113433;28;20031;-41
2022/09/23 02:16:49;;;;;;;5.93;3.47;;;;;;;13.37;52.70;99792.34;5113138;28;20076;-42
2022/09/23 02:19:23;;;;;;;4.45;3.85;;;;;;;14.11;50.54;99807.56;5089359;28;20040;-42
2022/09/23 02:22:14;;;;;;;4.15;3.33;;;;;;;13.85;51.04;99802.31;5092580;28;20032;-42
2022/09/23 02:24:39;;;;;;;4.40;3.60;;;;;;;13.51;51.90;99797.53;5092599;28;20032;-43
2022/09/23 02:27:45;;;;;;;5.65;3.60;;;;;;;13.56;51.56;99801.19;5092627;28;20085;-43
2022/09/23 02:30:16;;;;;;;4.10;3.58;;;;;;;13.64;51.52;99805.44;5092714;28;20031;-43
2022/09/23 02:33:00;;;;;;;5.00;4.10;;;;;;;13.58;51.74;99803.66;5092650;28;20020;-41
2022/09/23 02:35:36;;;;;;;6.07;3.60;;;;;;;13.65;51.85;99807.06;5092821;28;20031;-43
2022/09/23 02:38:46;;;;;;;5.10;3.85;;;;;;;13.90;51.25;99807.00;5092064;28;20063;-42
2022/09/23 02:41:31;;;;;;;4.97;3.70;;;;;;;13.66;51.93;99814.84;5099951;28;20015;-42
2022/09/23 02:44:01;;;;;;;5.10;3.55;;;;;;;13.65;52.21;99813.25;5112741;28;20039;-42
2022/09/23 02:46:28;;;;;;;5.05;4.13;;;;;;;13.98;51.24;99806.69;5111527;28;20034;-42
2022/09/23 02:49:09;;;;;;;5.63;4.05;;;;;;;13.95;51.23;99809.00;5111691;28;20028;-42
2022/09/23 02:51:37;;;;;;;4.78;4.10;;;;;;;13.51;52.27;99806.38;5112525;28;20127;-42
2022/09/23 02:54:06;;;;;;;4.45;4.05;;;;;;;13.70;52.09;99809.88;5110069;28;20128;-42
2022/09/23 02:56:32;;;;;;;6.18;4.00;;;;;;;13.73;51.97;99811.28;5112512;28;20079;-42
2022/09/23 02:58:58;;;;;;;5.10;3.92;;;;;;;13.48;52.74;99804.97;5112002;28;20143;-42
2022/09/23 03:01:38;;;;;;;5.82;4.05;;;;;;;13.65;52.67;99818.59;5111865;28;20149;-42
2022/09/23 03:04:32;;;;;;;5.13;4.00;;;;;;;13.52;52.90;99817.88;5112232;28;20031;-42
2022/09/23 03:07:13;;;;;;;9.90;7.35;;;;;;;14.02;51.54;99823.13;5036620;28;20183;-42
2022/09/23 03:09:46;;;;;;;8.55;4.10;;;;;;;13.60;52.42;99822.97;5091712;28;20035;-42
2022/09/23 03:12:20;;;;;;;7.60;4.60;;;;;;;13.56;52.52;99827.13;5092366;28;20028;-42
2022/09/23 03:15:01;;;;;;;9.25;4.05;;;;;;;13.49;52.89;99824.50;5092252;28;20116;-42
2022/09/23 03:17:33;;;;;;;5.47;3.95;;;;;;;13.64;52.84;99827.63;5101597;28;20107;-42
2022/09/23 03:20:37;;;;;;;4.38;3.67;;;;;;;13.62;52.41;99826.22;5112033;28;20084;-43
2022/09/23 03:23:07;;;;;;;6.95;4.32;;;;;;;13.78;52.46;99825.63;5112065;28;20057;-43
2022/09/23 03:25:37;;;;;;;5.28;4.05;;;;;;;13.78;52.18;99827.50;5112122;28;20028;-42
2022/09/23 03:28:06;;;;;;;6.03;4.00;;;;;;;13.48;52.41;99825.56;5112131;28;20056;-42
2022/09/23 03:30:34;;;;;;;5.18;4.25;;;;;;;13.52;52.50;99831.25;5111959;28;20692;-43
2022/09/23 03:33:03;;;;;;;4.75;4.03;;;;;;;13.04;53.76;99836.16;5111920;28;20042;-43
2022/09/23 03:36:48;;;;;;;5.60;4.28;;;;;;;13.27;53.98;99842.78;5111607;28;20032;-43
2022/09/23 03:38:23;;;;;;;5.78;4.32;;;;;;;13.46;52.83;99823.09;5111386;28;20047;-43
2022/09/23 03:40:49;;;;;;;7.70;4.20;;;;;;;13.21;53.56;99848.97;5112014;28;20149;-43
2022/09/23 03:43:15;;;;;;;8.70;4.50;;;;;;;12.73;55.33;99836.16;5112124;28;20028;-43
2022/09/23 03:45:41;;;;;;;8.02;4.65;;;;;;;13.13;54.16;99850.06;5111365;28;20491;-43
2022/09/23 03:48:07;;;;;;;7.75;4.95;;;;;;;12.99;55.04;99849.34;5111175;28;20116;-43
2022/09/23 03:50:38;;;;;;;5.88;4.68;;;;;;;12.84;55.24;99852.31;5111079;28;20450;-43
2022/09/23 03:53:03;;;;;;;7.75;4.80;;;;;;;12.75;55.77;99858.94;5111111;28;20057;-43
2022/09/23 03:55:29;;;;;;;8.07;4.97;;;;;;;12.96;56.04;99854.31;5111295;28;20032;-43
2022/09/23 03:57:54;;;;;;;8.77;4.90;;;;;;;12.87;55.54;99861.75;5110932;28;20413;-43
2022/09/23 04:00:20;;;;;;;9.32;5.32;;;;;;;12.57;56.43;99858.88;5111198;28;20038;-43
2022/09/23 04:02:45;;;;;;;5.85;4.70;;;;;;;12.89;56.19;99857.84;5111805;28;20102;-43
2022/09/23 04:05:12;;;;;;;8.77;5.40;;;;;;;13.02;55.79;99858.78;5111372;28;20042;-43
2022/09/23 04:07:37;;;;;;;7.93;4.40;;;;;;;13.26;61.45;99857.16;5111683;28;20135;-43
2022/09/23 04:10:04;;;;;;;8.55;4.57;;;;;;;13.56;54.76;99853.84;5111348;28;20434;-43
2022/09/23 04:12:29;;;;;;;7.47;4.90;;;;;;;13.23;55.04;99860.25;5111376;28;20528;-43
2022/09/23 04:14:55;;;;;;;7.22;4.80;;;;;;;13.37;55.00;99858.34;5111589;28;20027;-43
2022/09/23 04:17:20;;;;;;;9.63;5.82;;;;;;;13.22;55.22;99863.97;5111408;28;20023;-43
2022/09/23 04:19:46;;;;;;;8.55;5.90;;;;;;;12.67;56.52;99864.56;5111985;28;20245;-43
2022/09/23 04:22:11;;;;;;;5.85;4.75;;;;;;;12.54;57.70;99869.97;5109837;28;20046;-43
2022/09/23 04:24:36;;;;;;;9.57;5.00;;;;;;;12.71;56.74;99841.72;5111030;28;20084;-43
2022/09/23 04:27:02;;;;;;;9.18;5.03;;;;;;;13.07;56.37;99866.97;5111182;28;20452;-42
2022/09/23 04:29:28;;;;;;;7.95;4.90;;;;;;;13.69;59.81;99867.09;5111366;28;20475;-41
2022/09/23 04:31:53;;;;;;;10.65;4.97;;;;;;;13.60;54.92;99863.88;5118364;28;20191;-41
2022/09/23 04:34:19;;;;;;;7.50;4.93;;;;;;;13.10;55.95;99866.53;5101039;27;20020;-42
2022/09/23 04:36:46;;;;;;;8.88;5.60;;;;;;;12.99;56.50;99861.91;5090469;28;20051;-42
2022/09/23 04:39:13;;;;;;;7.85;5.53;;;;;;;12.94;56.40;99870.53;5090156;28;20028;-43
2022/09/23 04:41:39;;;;;;;5.80;4.72;;;;;;;13.10;56.25;99870.03;5090186;28;20484;-43
2022/09/23 04:44:05;;;;;;;11.30;5.75;;;;;;;13.12;56.51;99869.81;5090228;28;20030;-43
2022/09/23 04:46:31;;;;;;;8.75;5.00;;;;;;;13.36;55.65;99870.88;5090115;28;20020;-43
2022/09/23 04:48:56;;;;;;;7.30;4.88;;;;;;;13.42;55.44;99878.03;5089486;28;20132;-43
2022/09/23 04:51:23;;;;;;;5.97;4.72;;;;;;;13.63;54.28;99878.66;5089471;28;20108;-43
2022/09/23 04:53:50;;;;;;;8.38;5.00;;;;;;;13.94;53.49;99872.41;5089317;28;20137;-43
2022/09/23 04:56:21;;;;;;;7.78;4.90;;;;;;;13.73;54.00;99881.66;5088711;28;20030;-43
2022/09/23 04:58:48;;;;;;;5.53;4.82;;;;;;;13.94;53.23;99880.41;5089457;28;20186;-42
2022/09/23 05:01:23;;;;;;;8.05;4.45;;;;;;;14.53;52.20;99877.28;5090190;28;20029;-43
2022/09/23 05:03:50;;;;;;;7.25;4.53;;;;;;;14.99;50.84;99891.91;5089756;28;20028;-43
2022/09/23 05:06:15;;;;;;;5.68;4.00;;;;;;;15.53;48.98;99884.63;5099766;28;20177;-43
2022/09/23 05:08:49;;;;;;;5.90;3.60;;;;;;;15.28;49.71;99886.72;5110090;28;20464;-44
2022/09/23 05:11:15;;;;;;;5.65;3.80;;;;;;;15.33;49.18;99889.53;5109560;28;20080;-43
2022/09/23 05:13:40;;;;;;;4.10;3.70;;;;;;;16.15;47.72;99886.03;5109259;28;20023;-41
2022/09/23 05:16:09;;;;;;;4.60;3.83;;;;;;;16.49;46.21;99892.38;5110080;28;20035;-42
2022/09/23 05:18:37;;;;;;;5.25;3.80;;;;;;;16.74;45.74;99900.09;5112754;27;20043;-42
2022/09/23 05:21:03;;;;;;;4.40;3.75;;;;;;;16.58;45.44;99888.25;5112713;28;20436;-42
2022/09/23 05:23:29;;;;;;;4.45;3.30;;;;;;;16.72;45.10;99894.16;5111506;28;20077;-43
2022/09/23 05:26:03;;;;;;;5.68;4.43;;;;;;;17.43;44.16;99891.09;5112973;28;20027;-43
2022/09/23 05:28:31;;;;;;;4.53;3.60;;;;;;;17.28;44.11;99888.97;5112834;28;20027;-43
2022/09/23 05:31:04;;;;;;;5.30;3.63;;;;;;;16.94;44.45;99896.97;5112869;28;20239;-43
2022/09/23 05:33:30;;;;;;;4.07;3.42;;;;;;;17.17;44.03;99892.53;5113121;28;20019;-43
2022/09/23 05:35:55;;;;;;;5.20;3.80;;;;;;;17.56;43.50;99896.13;5112588;28;20027;-43
2022/09/23 05:38:21;;;;;;;6.60;4.15;;;;;;;17.85;42.78;99895.25;5112778;28;20023;-43
2022/09/23 05:40:53;;;;;;;4.93;3.53;;;;;;;18.71;41.49;99897.38;5112776;28;20561;-42
2022/09/23 05:43:18;;;;;;;6.45;3.63;;;;;;;18.98;40.26;99892.00;5112775;28;20024;-41
2022/09/23 05:45:44;;;;;;;5.85;3.20;;;;;;;19.46;39.44;99892.97;5112488;28;20493;-43
2022/09/23 05:48:09;;;;;;;5.32;3.30;;;;;;;19.40;39.18;99888.59;5112607;28;20020;-43
2022/09/23 05:50:34;;;;;;;3.88;3.00;;;;;;;18.87;40.17;99890.31;5112518;28;20067;-41
2022/09/23 05:53:00;;;;;;;6.15;3.70;;;;;;;19.65;38.80;99889.88;5112272;28;20085;-41
2022/09/23 05:55:25;;;;;;;4.32;3.70;;;;;;;19.67;38.97;99890.41;5112119;28;20032;-41
2022/09/23 05:57:51;;;;;;;5.93;3.50;;;;;;;20.03;37.89;99896.88;5111655;28;20032;-43
2022/09/23 06:00:16;;;;;;;3.63;3.00;;;;;;;19.96;38.21;99896.28;5112132;28;20139;-42
2022/09/23 06:02:42;;;;;;;4.57;3.17;;;;;;;20.19;37.65;99897.75;5111779;28;20122;-42
2022/09/23 06:05:07;;;;;;;5.10;3.30;;;;;;;20.12;38.01;99899.88;5111966;28;20023;-42
2022/09/23 06:07:33;;;;;;;4.30;3.33;;;;;;;19.91;38.00;99897.06;5112447;28;20107;-42
2022/09/23 06:09:58;;;;;;;5.22;3.20;;;;;;;18.80;40.15;99893.19;5112716;28;20089;-42
2022/09/23 06:12:24;;;;;;;4.35;3.22;;;;;;;19.78;38.93;99894.84;5113081;28;20032;-41
2022/09/23 06:14:49;;;;;;;3.85;3.30;;;;;;;20.14;37.99;99896.91;5113293;28;20057;-42
2022/09/23 06:17:16;;;;;;;7.57;3.67;;;;;;;19.87;38.56;99895.16;5113537;28;20027;-42
2022/09/23 06:19:41;;;;;;;9.30;3.65;;;;;;;19.74;38.84;99893.72;5111760;28;20411;-42
2022/09/23 06:22:06;;;;;;;8.15;3.85;;;;;;;20.71;37.92;99896.06;5113354;28;20039;-42
2022/09/23 06:24:32;;;;;;;5.72;3.90;;;;;;;21.04;36.75;99881.25;5112908;28;20104;-42
2022/09/23 06:26:57;;;;;;;7.38;3.78;;;;;;;22.10;35.27;99904.97;5112614;28;20024;-43
2022/09/23 06:29:23;;;;;;;5.47;4.03;;;;;;;21.48;35.84;99905.09;5111529;28;20023;-43
2022/09/23 06:31:48;;;;;;;5.05;3.55;;;;;;;22.55;34.55;99902.38;5112506;27;20028;-42
2022/09/23 06:34:14;;;;;;;9.52;5.28;;;;;;;22.71;34.07;99903.09;5112492;28;20463;-42
2022/09/23 06:36:41;;;;;;;7.97;3.90;;;;;;;22.53;33.30;99901.84;5112656;28;20012;-41
2022/09/23 06:39:06;;;;;;;5.40;3.38;;;;;;;22.45;33.95;99897.81;5112430;28;20031;-42
2022/09/23 06:41:31;;;;;;;5.80;3.30;;;;;;;22.92;33.05;99904.59;5112449;28;20023;-42
2022/09/23 06:43:57;;;;;;;4.88;3.20;;;;;;;22.76;33.49;99903.06;5112517;28;20108;-42
2022/09/23 06:46:22;;;;;;;5.70;3.10;;;;;;;22.25;33.70;99894.09;5112490;28;20023;-42
2022/09/23 06:48:49;;;;;;;4.25;3.08;;;;;;;22.03;34.18;99902.56;5112265;28;20027;-42
2022/09/23 06:51:18;;;;;;;2.95;2.65;;;;;;;21.99;33.52;99901.50;5112867;28;20034;-42
2022/09/23 06:53:52;;;;;;;4.82;3.13;;;;;;;21.51;34.37;99909.13;5112195;28;20040;-44
2022/09/23 06:56:20;;;;;;;4.55;3.10;;;;;;;22.34;33.77;99909.78;5111989;28;20028;-41
2022/09/23 06:58:46;;;;;;;5.30;3.20;;;;;;;22.94;32.87;99907.03;5111375;28;20028;-41
2022/09/23 07:01:15;;;;;;;4.90;3.25;;;;;;;22.22;33.19;99913.59;5112066;28;20027;-41
2022/09/23 07:03:41;;;;;;;7.10;3.20;;;;;;;22.38;33.04;99910.84;5111954;28;20024;-41
2022/09/23 07:06:06;;;;;;;6.80;2.80;;;;;;;22.02;33.64;99914.47;5111850;28;20768;-42
2022/09/23 07:08:33;;;;;;;5.20;2.90;;;;;;;22.17;32.92;99920.94;5112306;28;20022;-42
2022/09/23 07:11:01;;;;;;;6.78;3.10;;;;;;;21.97;33.21;99910.94;5111840;28;20023;-41
2022/09/23 07:13:27;;;;;;;7.03;3.00;;;;;;;22.20;32.98;99909.53;5111353;28;20139;-43
2022/09/23 07:15:55;;;;;;;4.47;3.28;;;;;;;22.58;32.64;99910.78;5111276;28;20572;-43
2022/09/23 07:18:22;;;;;;;5.00;2.70;;;;;;;21.83;33.60;99914.22;5111207;28;20125;-43
2022/09/23 07:20:48;;;;;;;5.90;2.70;;;;;;;21.14;34.41;99917.50;5112012;28;20441;-42
2022/09/23 07:23:14;;;;;;;5.18;2.90;;;;;;;21.19;34.21;99912.91;5111295;28;20026;-42
2022/09/23 07:25:41;;;;;;;4.72;2.63;;;;;;;21.06;34.93;99908.84;5111137;28;20052;-42
2022/09/23 07:28:06;;;;;;;4.35;2.67;;;;;;;21.65;33.94;99914.81;5111135;28;20026;-42
2022/09/23 07:30:36;;;;;;;7.20;2.90;;;;;;;22.04;33.21;99912.28;5112018;28;20463;-43
2022/09/23 07:33:01;;;;;;;5.20;2.78;;;;;;;21.81;33.30;99913.69;5111811;28;20020;-42
2022/09/23 07:35:27;;;;;;;6.45;3.35;;;;;;;22.14;33.07;99922.31;5111160;28;20046;-42
2022/09/23 07:37:52;;;;;;;5.57;2.80;;;;;;;22.23;32.70;99917.91;5112074;28;20114;-42
2022/09/23 07:40:18;;;;;;;3.80;2.28;;;;;;;21.50;33.39;99922.97;5111803;28;20382;-42
2022/09/23 07:42:43;;;;;;;4.43;2.50;;;;;;;21.26;33.78;99912.63;5112197;28;20043;-42
2022/09/23 07:45:09;;;;;;;4.78;2.45;;;;;;;22.01;32.91;99920.19;5111509;28;20020;-42
2022/09/23 07:47:35;;;;;;;4.40;2.60;;;;;;;22.54;32.41;99917.84;5110154;28;20028;-42
2022/09/23 07:50:00;;;;;;;5.38;2.50;;;;;;;21.80;32.64;99905.84;5111151;28;20019;-42
2022/09/23 07:52:26;;;;;;;6.05;2.50;;;;;;;21.88;32.85;99916.13;5111074;28;20115;-42
2022/09/23 07:54:51;;;;;;;3.80;2.50;;;;;;;22.20;32.13;99914.94;5111349;28;20114;-42
2022/09/23 07:57:17;;;;;;;3.63;2.78;;;;;;;21.70;33.11;99906.69;5111335;28;20114;-42
2022/09/23 07:59:42;;;;;;;5.78;2.67;;;;;;;21.29;33.28;99918.31;5111089;28;20020;-42
2022/09/23 08:02:10;;;;;;;15.50;2.92;;;;;;;21.96;32.32;99914.78;5111126;28;20031;-42
2022/09/23 08:04:35;;;;;;;4.75;2.60;;;;;;;21.84;32.75;99909.66;5110790;28;20380;-41
2022/09/23 08:07:04;;;;;;;8.55;2.70;;;;;;;21.23;34.15;99905.06;5111146;28;20038;-42
2022/09/23 08:09:33;;;;;;;3.90;2.60;;;;;;;21.90;33.19;99913.97;5110050;28;20020;-42
2022/09/23 08:11:59;;;;;;;6.20;2.60;;;;;;;22.16;32.96;99908.47;5110650;28;20023;-43
2022/09/23 08:14:24;;;;;;;2.90;2.55;;;;;;;22.32;32.72;99903.84;5110902;28;20058;-43
2022/09/23 08:16:51;;;;;;;6.80;2.67;;;;;;;22.30;32.92;99906.03;5110712;28;20081;-43
2022/09/23 08:19:17;;;;;;;4.65;2.83;;;;;;;21.96;32.64;99903.94;5110542;28;20048;-42
2022/09/23 08:21:46;;;;;;;3.75;2.80;;;;;;;22.40;32.01;99903.25;5110398;28;20038;-42
2022/09/23 08:24:22;;;;;;;6.90;2.65;;;;;;;22.23;31.89;99898.94;5110550;28;20392;-42
2022/09/23 08:26:51;;;;;;;11.23;2.70;;;;;;;22.96;31.09;99892.09;5110325;28;20024;-43
2022/09/23 08:29:18;;;;;;;4.03;2.60;;;;;;;23.46;30.73;99891.19;5109412;28;20047;-42
2022/09/23 08:31:44;;;;;;;5.80;2.30;;;;;;;23.08;31.13;99885.53;5110705;28;20088;-42
2022/09/23 08:34:10;;;;;;;4.78;2.65;;;;;;;23.10;31.13;99884.16;5110485;28;20015;-42
2022/09/23 08:36:36;;;;;;;5.00;2.50;;;;;;;22.97;30.93;99865.75;5110650;28;20038;-43
2022/09/23 08:39:02;;;;;;;5.20;2.50;;;;;;;23.36;30.61;99875.78;5110493;28;20020;-42
2022/09/23 08:41:52;;;;;;;5.80;2.30;;;;;;;23.28;30.84;99873.69;5110583;28;20027;-42
2022/09/23 08:44:30;;;;;;;2.72;2.40;;;;;;;23.31;30.32;99873.94;5108913;28;20034;-42
2022/09/23 08:47:09;;;;;;;3.13;2.33;;;;;;;22.80;31.44;99866.94;5110208;28;20115;-42
2022/09/23 08:49:40;;;;;;;3.13;2.20;;;;;;;22.23;31.76;99852.88;5110424;28;20475;-42
2022/09/23 08:52:13;;;;;;;3.17;2.40;;;;;;;22.71;30.89;99863.22;5113491;28;20055;-43
2022/09/23 08:54:39;;;;;;;3.47;2.40;;;;;;;22.77;31.04;99861.28;5115321;28;20019;-42
2022/09/23 08:57:15;;;;;;;6.47;2.35;;;;;;;23.26;30.57;99870.44;5114713;27;20031;-42
2022/09/23 08:59:42;;;;;;;4.45;2.35;;;;;;;22.32;31.49;99868.59;5114376;28;20020;-42
2022/09/23 09:02:20;;;;;;;2.95;2.33;;;;;;;22.67;31.46;99861.34;5114367;28;20092;-42
2022/09/23 09:04:51;;;;;;;4.57;2.20;;;;;;;22.71;30.85;99867.84;5114070;28;20601;-41
2022/09/23 09:07:39;;;;;;;3.72;2.20;;;;;;;22.32;31.02;99861.28;5114211;28;20103;-44
2022/09/23 09:10:13;;;;;;;2.25;2.05;;;;;;;22.62;30.37;99856.78;5114562;28;20016;-42
2022/09/23 09:12:48;;;;;;;3.45;2.10;;;;;;;22.33;30.78;99853.94;5113856;28;20099;-42
2022/09/23 09:15:22;;;;;;;3.30;2.00;;;;;;;22.63;30.74;99858.38;5113738;28;20505;-42
2022/09/23 09:17:48;;;;;;;2.10;1.90;;;;;;;22.57;30.52;99860.31;5113515;28;20026;-42
2022/09/23 09:20:38;;;;;;;4.93;2.38;;;;;;;22.80;30.22;99853.38;5113510;27;20130;-43
2022/09/23 09:23:10;;;;;;;2.97;2.10;;;;;;;22.71;30.61;99860.50;5114006;28;20031;-42
2022/09/23 09:25:56;;;;;;;2.30;2.10;;;;;;;22.88;30.18;99851.97;5113480;28;20028;-42
2022/09/23 09:28:40;;;;;;;2.30;1.90;;;;;;;23.13;29.47;99850.19;5113660;28;20125;-43
2022/09/23 09:31:06;;;;;;;2.13;1.92;;;;;;;23.77;28.60;99850.94;5114382;28;20020;-43
2022/09/23 09:33:56;;;;;;;3.38;2.10;;;;;;;23.83;28.59;99862.59;5114073;28;20434;-43
2022/09/23 09:36:31;;;;;;;2.23;1.87;;;;;;;24.07;28.05;99841.66;5113740;28;20028;-43
2022/09/23 09:38:59;;;;;;;7.03;2.50;;;;;;;23.56;28.57;99853.06;5113517;28;20081;-43
2022/09/23 09:41:30;;;;;;;2.10;1.90;;;;;;;23.61;28.51;99844.88;5113564;28;20028;-43
2022/09/23 09:43:58;;;;;;;5.07;2.00;;;;;;;23.30;28.58;99844.34;5113385;28;20509;-43
2022/09/23 09:46:51;;;;;;;2.72;1.80;;;;;;;23.52;28.18;99852.03;5113695;28;20119;-43
2022/09/23 09:50:04;;;;;;;2.15;1.83;;;;;;;23.95;27.66;99849.41;5113492;28;20073;-42
2022/09/23 09:52:30;;;;;;;4.40;2.10;;;;;;;23.29;28.16;99859.84;5104764;28;20039;-43
2022/09/23 09:55:24;;;;;;;5.00;2.35;;;;;;;22.89;28.73;99841.97;5113183;28;20023;-44
2022/09/23 09:57:52;;;;;;;4.05;2.10;;;;;;;23.10;28.90;99848.06;5112873;28;20073;-44
2022/09/23 10:00:32;;;;;;;6.35;2.15;;;;;;;23.53;28.07;99846.31;5113101;28;20035;-41
2022/09/23 10:03:23;;;;;;;2.25;2.00;;;;;;;23.16;28.31;99844.22;5111933;28;20024;-42
2022/09/23 10:05:51;;;;;;;4.18;2.33;;;;;;;23.58;28.29;99848.97;5112312;28;20027;-42
2022/09/23 10:08:23;;;;;;;3.60;2.20;;;;;;;23.64;28.52;99848.91;5113039;28;20102;-42
2022/09/23 10:10:58;;;;;;;2.53;2.20;;;;;;;23.61;28.60;99845.69;5112440;28;20562;-44
2022/09/23 10:13:26;;;;;;;4.22;2.50;;;;;;;23.19;29.44;99840.94;5112701;28;20020;-42
2022/09/23 10:15:55;;;;;;;2.47;2.03;;;;;;;23.25;27.89;99837.06;5112422;27;20019;-42
2022/09/23 10:18:31;;;;;;;1.95;1.60;;;;;;;23.36;27.67;99838.59;5112007;28;20047;-43
2022/09/23 10:21:19;;;;;;;2.78;1.70;;;;;;;23.18;27.20;99828.44;5112487;28;20020;-42
2022/09/23 10:23:50;;;;;;;1.92;1.60;;;;;;;23.65;26.75;99821.47;5112618;27;20042;-42
2022/09/23 10:26:17;;;;;;;6.90;2.10;;;;;;;24.33;26.63;99823.09;5112250;28;20031;-42
2022/09/23 10:28:51;;;;;;;4.22;1.67;;;;;;;23.62;25.89;99822.03;5113204;28;20032;-43
2022/09/23 10:31:25;;;;;;;4.63;1.88;;;;;;;23.48;26.31;99818.41;5112840;28;20117;-43
2022/09/23 10:33:59;;;;;;;1.85;1.55;;;;;;;23.82;26.09;99812.88;5112782;28;20055;-43
2022/09/23 10:36:30;;;;;;;6.97;2.05;;;;;;;23.89;25.55;99802.44;5112170;28;20034;-43
2022/09/23 10:46:37;;;;;;;3.17;1.83;;;;;;;24.64;24.60;99792.75;5112360;28;20043;-43
2022/09/23 10:47:40;;;;;;;2.38;1.40;;;;;;;24.03;25.10;99785.44;5112509;28;20066;-43
2022/09/23 10:50:33;;;;;;;1.83;1.33;;;;;;;24.61;23.46;99789.81;5112815;28;20020;-43
2022/09/23 10:53:05;;;;;;;3.13;1.38;;;;;;;24.84;23.78;99791.63;5112179;28;20023;-44
2022/09/23 10:55:47;;;;;;;1.30;1.20;;;;;;;24.50;23.87;99789.97;5112468;28;20068;-43
2022/09/23 10:58:16;;;;;;;3.88;1.10;;;;;;;24.46;23.94;99788.91;5112730;28;20031;-43
2022/09/23 11:00:53;;;;;;;;;;;;;;;24.71;23.86;99782.31;5112784;28;20073;-43
2022/09/23 11:03:19;;;;;;;4.32;1.48;;;;;;;24.46;24.11;99778.03;5111485;28;20010;-44
2022/09/23 11:06:16;;;;;;;4.82;1.30;;;;;;;25.03;23.44;99769.00;5111221;28;20098;-42
2022/09/23 11:08:49;;;;;;;2.75;1.40;;;;;;;24.67;22.97;99770.38;5111503;28;20057;-44
2022/09/23 11:11:27;;;;;;;3.45;1.40;;;;;;;24.18;23.92;99771.66;5111204;28;20027;-42
2022/09/23 11:14:04;;;;;;;2.20;1.17;;;;;;;24.19;23.73;99763.19;5110544;28;20103;-42
2022/09/23 11:17:06;;;;;;;1.60;1.23;;;;;;;24.44;23.86;99757.69;5110881;27;20410;-42
2022/09/23 11:20:04;;;;;;;2.03;1.20;;;;;;;25.59;22.37;99751.66;5111762;28;20122;-45
2022/09/23 11:22:42;;;;;;;2.13;1.50;;;;;;;25.49;24.36;99752.66;5112312;28;20027;-43
2022/09/23 11:25:45;;;;;;;5.30;1.30;;;;;;;25.81;22.91;99748.16;5112167;28;20679;-43
2022/09/23 11:28:22;;;;;;;1.92;1.27;;;;;;;26.02;22.09;99748.56;5112314;28;20521;-42
2022/09/23 11:31:15;;;;;;;1.83;1.13;;;;;;;25.94;22.26;99741.13;5112282;28;20039;-43
2022/09/23 11:33:51;;;;;;;1.30;1.20;;;;;;;26.08;21.82;99736.47;5111202;28;20077;-43
2022/09/23 11:36:27;;;;;;;1.88;1.17;;;;;;;25.43;21.84;99739.44;5111476;28;20031;-43
2022/09/23 11:38:55;;;;;;;1.40;1.30;;;;;;;25.51;22.36;99736.81;5110906;28;20024;-42
2022/09/23 11:41:29;;;;;;;2.47;1.60;;;;;;;25.93;22.52;99728.59;5109644;28;20114;-48
2022/09/23 11:44:13;;;;;;;2.65;1.27;;;;;;;25.78;22.42;99720.72;5110792;28;20024;-48
2022/09/23 11:46:51;;;;;;;3.58;1.73;;;;;;;25.31;22.14;99718.94;5100743;28;20030;-44
2022/09/23 11:49:25;;;;;;;2.75;1.50;;;;;;;25.78;22.58;99729.72;5107858;28;20027;-45
2022/09/23 11:52:00;;;;;;;2.17;0.90;;;;;;;25.86;21.61;99709.91;5110297;28;20031;-43
2022/09/23 11:54:47;;;;;;;1.50;1.10;;;;;;;25.71;21.75;99712.97;5110718;28;20485;-44
2022/09/23 11:57:41;;;;;;;1.38;1.00;;;;;;;26.12;21.26;99715.63;5108943;28;20049;-43
2022/09/23 12:00:17;;;;;;;0.80;0.80;;;;;;;26.45;20.92;99704.50;5109713;28;20049;-42
2022/09/23 12:03:04;;;;;;;3.63;1.40;;;;;;;26.50;22.27;99709.00;5110403;28;20493;-43
2022/09/23 12:05:37;;;;;;;1.42;1.00;;;;;;;27.37;20.54;99711.44;5110165;28;20062;-43